Flag for Spain

Past Weather in 36°32'03.9"N, 6°17'25.0"W, Spain — Yesterday and Last 2 Weeks

Currently: 59 °F. Clear. (Weather station: Rota Airport, Spain). See more current weather

Past Weather in 36°32'03.9"N, 6°17'25.0"W — Graph

°F

36°32'03.9"N, 6°17'25.0"W Temperature Yesterday

Maximum temperature yesterday: 70 °F (at 2:00 pm)
Minimum temperature yesterday: 57 °F (at 10:30 pm)
Average temperature yesterday: 63 °F

High & Low Weather Summary for the Past Weeks

 TemperatureHumidityPressure
High75 °F (Nov 12, 2:00 pm)100% (Nov 13, 2:09 am)30.36 "Hg (Nov 13, 2:09 am)
Low48 °F (Nov 26, 7:30 am)44% (Nov 26, 5:00 pm)29.98 "Hg (Nov 16, 5:00 am)
Average63 °F82%30.15 "Hg
* Reported Nov 11 8:00 pm — Nov 26 8:00 pm, 36°32'03.9"N, 6°17'25.0"W. Weather by CustomWeather, © 2022

Note: Actual official high and low records may vary slightly from our data, if they occured in-between our weather recording intervals... More about our weather records

36°32'03.9"N, 6°17'25.0"W Weather History for the Previous 24 Hours

Scroll right to see more
 ConditionsComfort  
Time TempWeatherWind HumidityBarometerVisibility
8:00 pm
Sat, Nov 26
61 °FPassing clouds.3 mph63%30.30 "HgN/A
7:30 pm63 °FClear.5 mph59%30.30 "Hg10 mi
7:00 pm63 °FClear.2 mph64%30.27 "Hg10 mi
6:30 pm66 °FClear.7 mph52%30.27 "Hg10 mi
6:00 pm68 °FSunny.9 mph49%30.27 "Hg10 mi
5:30 pm72 °FSunny.12 mph44%30.27 "Hg10 mi
5:00 pm72 °FSunny.13 mph44%30.27 "Hg10 mi
4:30 pm73 °FPassing clouds.10 mph47%30.27 "HgN/A
4:00 pm73 °FPassing clouds.9 mph47%30.27 "HgN/A
3:30 pm72 °FPassing clouds.8 mph50%30.27 "HgN/A
3:00 pm72 °FPassing clouds.10 mph47%30.27 "HgN/A
2:00 pm68 °FPassing clouds.9 mph53%30.33 "HgN/A
1:30 pm68 °FPassing clouds.10 mph56%30.33 "HgN/A
1:00 pm66 °FPassing clouds.10 mph60%30.33 "HgN/A
12:30 pm64 °FPassing clouds.8 mph60%30.33 "HgN/A
12:00 pm61 °FPassing clouds.7 mph68%30.36 "HgN/A
11:30 am59 °FPassing clouds.7 mph72%30.36 "HgN/A
11:00 am57 °FPassing clouds.8 mph72%30.36 "HgN/A
10:30 am55 °FSunny.8 mph77%30.33 "Hg10 mi
10:00 am54 °FPassing clouds.9 mph82%30.33 "HgN/A
9:30 am52 °FSunny.10 mph82%30.33 "Hg10 mi
9:00 am50 °FSunny.5 mph88%30.33 "Hg10 mi
8:30 am48 °FSunny.8 mph94%30.33 "Hg10 mi
8:00 am48 °FClear.7 mph94%30.30 "Hg10 mi
7:30 am48 °FClear.7 mph87%30.30 "Hg10 mi
7:00 am50 °FClear.8 mph88%30.30 "Hg10 mi
6:30 am50 °FClear.9 mph88%30.30 "Hg10 mi
6:00 am50 °FPassing clouds.8 mph88%30.30 "HgN/A
5:30 am50 °FClear.9 mph88%30.27 "Hg10 mi
5:00 am50 °FClear.9 mph88%30.27 "Hg10 mi
4:30 am52 °FClear.10 mph82%30.27 "Hg10 mi
4:00 am52 °FClear.9 mph88%30.27 "Hg10 mi
3:30 am52 °FClear.9 mph82%30.27 "Hg10 mi
3:00 am52 °FClear.7 mph88%30.27 "Hg10 mi
2:30 am52 °FClear.7 mph88%30.27 "Hg10 mi
2:00 am54 °FClear.9 mph82%30.27 "Hg10 mi
12:30 am55 °FPassing clouds.8 mph72%30.30 "HgN/A
12:00 am57 °FPassing clouds.12 mph67%30.27 "HgN/A
11:30 pm
Fri, Nov 25
57 °FPassing clouds.14 mph67%30.30 "HgN/A
11:00 pm57 °FPassing clouds.12 mph72%30.30 "HgN/A
10:30 pm57 °FPassing clouds.8 mph72%30.30 "HgN/A
10:00 pm59 °FPassing clouds.9 mph72%30.30 "HgN/A
9:00 pm59 °FPassing clouds.8 mph72%30.30 "HgN/A
Weather by CustomWeather, © 2022

See weather overview